KDXX

Lac Qui Parle County Airport

Madison, Minnesota, USA
METAR KDXX 161435Z AUTO 00000KT 10SM OVC075 02/M01 A2979 RMK AO2
Observed Flight Rules
Dec-16 @ 14:35 UTC (19 minutes ago) Visual Flight Rules
Wind Visibility Clouds
Calm 10 miles
  • Overcast at 7,500' AGL
Temperatures Readings
Current 2°C / 36°F
Dewpoint -1°C / 30°F
Humidity 81%
Altimeter 29.79" Hg
Pressure 1009 hPa
Elevation 330
METAR KDXX 161435Z AUTO 00000KT 10SM OVC075 02/M01 A2979 RMK AO2
Observed Flight Rules
Dec-16 @ 14:35 UTC
(19 minutes ago)
VFR
Wind Visibility
Calm 10 miles
Clouds
  • Overcast at 7,500' AGL
Temperature Dewpoint
2°C / 36°F -1°C / 30°F
Humidity Altimeter Pressure
81% 29.79" Hg 1009 hPa